createdAt,value
2023-04-02T04:49:13.496Z,30.65
2023-04-02T04:50:32.406Z,27.27
2023-04-02T04:51:50.950Z,29.60
2023-04-02T06:38:31.391Z,31.10
2023-04-02T06:39:39.507Z,30.15
2023-04-02T06:40:53.756Z,33.22
2023-04-02T06:42:20.005Z,32.35
2023-04-02T06:43:56.498Z,32.83
2023-04-02T06:45:37.312Z,32.30
2023-04-02T06:47:08.542Z,35.40
2023-04-02T06:48:17.496Z,32.63
2023-04-02T06:49:27.704Z,30.55
2023-04-02T06:50:43.637Z,33.65
2023-04-02T06:51:52.858Z,33.33
2023-04-02T06:53:01.773Z,31.85
2023-04-02T06:54:05.042Z,30.85
2023-04-02T06:55:25.358Z,31.58
2023-04-02T06:56:50.242Z,32.47
2023-04-02T06:58:02.416Z,31.90
2023-04-02T06:59:11.037Z,33.72
2023-04-02T07:00:54.746Z,30.15
2023-04-02T07:02:18.552Z,30.90
2023-04-02T07:03:26.218Z,33.60
2023-04-02T07:04:31.754Z,30.75
2023-04-02T07:05:37.070Z,30.42
2023-04-02T07:06:40.195Z,30.42
2023-04-02T07:07:47.236Z,31.02
2023-04-02T07:08:53.505Z,32.65
2023-04-02T07:09:58.336Z,31.55
2023-04-02T07:11:05.333Z,32.67
2023-04-02T07:12:14.761Z,34.95
2023-04-02T07:13:26.230Z,29.35
2023-04-02T07:14:34.249Z,32.70
2023-04-02T07:15:38.511Z,30.30
2023-04-02T07:18:11.273Z,28.55
2023-04-02T07:19:25.281Z,35.20
2023-04-02T07:20:42.598Z,31.17
2023-04-02T07:24:10.735Z,33.60
2023-04-02T07:25:14.439Z,31.38
2023-04-02T07:26:29.208Z,32.83
2023-04-02T07:27:40.446Z,30.90
2023-04-02T07:28:49.600Z,30.98
2023-04-02T07:29:57.815Z,35.25
2023-04-02T07:31:04.788Z,33.10
2023-04-02T07:32:17.483Z,34.28
2023-04-02T07:33:36.373Z,32.90
2023-04-02T07:36:20.946Z,33.55
2023-04-02T07:37:31.766Z,33.53
2023-04-02T07:38:38.402Z,35.65
2023-04-02T07:39:42.170Z,33.30
2023-04-02T07:40:45.663Z,32.38
2023-04-02T07:41:59.285Z,34.58
2023-04-02T07:43:03.973Z,36.08
2023-04-02T07:44:22.499Z,31.55
2023-04-02T07:45:52.410Z,36.65
2023-04-02T07:46:56.766Z,30.40
2023-04-02T07:48:10.424Z,36.83
2023-04-02T07:49:18.954Z,35.47
2023-04-02T07:50:24.366Z,37.53
2023-04-02T07:51:48.392Z,32.60
2023-04-02T07:54:04.389Z,32.63
2023-04-02T07:55:27.306Z,37.15
2023-04-02T07:58:00.768Z,34.40
2023-04-02T07:59:10.570Z,36.28
2023-04-02T08:00:21.555Z,35.30
2023-04-02T08:31:35.516Z,34.50
2023-04-02T08:34:14.176Z,35.90
2023-04-02T08:39:20.478Z,31.52
2023-04-02T08:40:42.790Z,36.33
2023-04-02T08:43:07.494Z,35.33
2023-04-02T08:59:25.199Z,37.13
2023-04-02T09:02:09.125Z,38.20
2023-04-02T09:10:53.648Z,34.33
2023-04-02T09:12:49.817Z,34.22
2023-04-02T09:19:39.694Z,30.77
2023-04-02T09:24:05.300Z,30.85
2023-04-02T09:26:36.171Z,33.17
2023-04-02T09:31:02.838Z,28.23
2023-04-02T09:34:29.299Z,28.70
2023-04-02T09:46:54.264Z,30.92
2023-04-02T09:51:29.917Z,27.88
2023-04-02T09:53:45.610Z,27.20
2023-04-02T09:57:56.047Z,28.80
2023-04-02T10:02:14.843Z,28.90
2023-04-02T10:15:54.801Z,25.65
2023-04-02T10:17:47.072Z,31.30
2023-04-02T10:20:05.467Z,27.25
2023-04-02T10:21:37.498Z,26.17
2023-04-02T10:22:49.374Z,26.02
2023-04-02T10:26:05.672Z,25.80
2023-04-02T10:30:28.840Z,29.35
2023-04-02T10:37:13.298Z,29.00
2023-04-02T10:38:52.614Z,28.98
2023-04-02T10:40:04.869Z,27.35
2023-04-02T10:41:56.662Z,29.00
2023-04-02T10:43:34.061Z,33.55
2023-04-02T10:49:18.510Z,25.92
2023-04-02T10:53:35.323Z,26.25
2023-04-02T10:55:08.103Z,26.40
2023-04-02T10:56:23.104Z,23.38
2023-04-02T10:59:48.280Z,31.95
2023-04-02T11:01:18.839Z,27.25
2023-04-02T11:03:21.675Z,23.27
2023-04-02T11:05:22.257Z,23.92
2023-04-02T11:08:48.013Z,24.60
2023-04-02T11:10:37.628Z,24.95
2023-04-02T11:12:03.435Z,30.08
2023-04-02T11:13:40.648Z,28.90
2023-04-02T11:15:02.877Z,27.52
2023-04-02T11:16:19.030Z,23.42
2023-04-02T11:19:23.909Z,28.42
2023-04-02T11:21:07.632Z,27.60
2023-04-02T11:22:26.335Z,27.35
2023-04-02T11:24:03.929Z,28.05
2023-04-02T11:25:43.026Z,23.63
2023-04-02T11:26:56.369Z,26.80
2023-04-02T11:28:25.312Z,25.83
2023-04-02T11:29:53.959Z,24.88
2023-04-02T11:31:00.504Z,24.55
2023-04-02T11:32:43.789Z,27.15
2023-04-02T11:34:15.963Z,27.10
2023-04-02T11:35:32.651Z,24.42
2023-04-02T11:37:02.932Z,28.10
2023-04-02T11:38:39.699Z,27.80
2023-04-02T11:43:53.670Z,29.90
2023-04-02T11:47:21.971Z,34.28
2023-04-02T11:48:42.292Z,31.00
2023-04-02T11:50:09.655Z,29.13
2023-04-02T11:51:36.669Z,24.65
2023-04-02T11:52:55.610Z,33.70
2023-04-02T11:54:31.896Z,27.73
2023-04-02T11:55:45.729Z,26.90
2023-04-02T11:57:34.719Z,29.85
2023-04-02T11:59:16.862Z,27.90
2023-04-02T12:01:08.796Z,25.40
2023-04-02T12:02:18.143Z,32.75
2023-04-02T12:03:32.635Z,32.58
2023-04-02T12:05:03.603Z,44.35
2023-04-02T12:06:26.184Z,31.35
2023-04-02T12:07:49.119Z,28.95
2023-04-02T12:09:10.236Z,32.65
2023-04-02T12:10:40.859Z,25.88
2023-04-02T12:12:01.674Z,26.17
2023-04-02T12:14:42.359Z,28.50
2023-04-02T12:16:02.664Z,32.35
2023-04-02T12:21:44.811Z,31.92
2023-04-02T12:23:23.090Z,26.33
2023-04-02T12:24:40.489Z,28.25
2023-04-02T12:26:09.220Z,25.33
2023-04-02T12:27:45.300Z,27.45
2023-04-02T12:28:56.432Z,23.90
2023-04-02T12:34:06.012Z,25.80
2023-04-02T12:39:20.759Z,28.05
2023-04-02T12:40:28.017Z,28.95
2023-04-02T12:41:42.962Z,29.88
2023-04-02T12:42:52.931Z,27.92
2023-04-02T12:44:39.147Z,26.73
2023-04-02T12:45:58.790Z,25.00
2023-04-02T12:47:22.534Z,23.80
2023-04-02T12:48:32.051Z,28.63
2023-04-02T12:49:47.057Z,29.15
2023-04-02T12:50:52.608Z,27.63
2023-04-02T12:52:12.062Z,33.28
2023-04-02T12:53:44.723Z,26.95
2023-04-02T12:55:00.888Z,30.23
2023-04-02T12:56:29.730Z,30.05
2023-04-02T12:58:04.959Z,26.77
2023-04-02T13:01:26.184Z,24.55
2023-04-02T13:02:51.285Z,29.95
2023-04-02T13:04:23.520Z,27.58
2023-04-02T13:05:59.052Z,27.52
2023-04-02T13:07:36.243Z,26.48
2023-04-02T13:09:05.649Z,29.25
2023-04-02T13:10:35.871Z,30.05
2023-04-02T13:11:57.032Z,27.88
2023-04-02T13:13:08.340Z,26.77
2023-04-02T13:14:32.548Z,26.55
2023-04-02T13:15:38.903Z,24.35
2023-04-02T13:16:52.713Z,26.40
2023-04-02T13:18:18.688Z,24.92
2023-04-02T13:20:17.273Z,27.50
2023-04-02T13:21:24.166Z,29.70
2023-04-02T13:22:32.274Z,29.85
2023-04-02T13:26:27.921Z,26.35
2023-04-02T13:27:40.818Z,25.33
2023-04-02T13:29:12.562Z,31.27
2023-04-02T13:30:26.233Z,29.38
2023-04-02T13:31:37.740Z,35.28
2023-04-02T13:36:21.098Z,28.92
2023-04-02T13:37:35.340Z,27.20
2023-04-02T13:38:51.612Z,30.58
2023-04-02T13:40:25.933Z,30.85
2023-04-02T13:47:10.205Z,23.83
2023-04-02T13:48:38.098Z,25.60
2023-04-02T13:49:42.252Z,24.05
2023-04-02T13:50:55.966Z,30.50
2023-04-02T13:52:32.694Z,28.67
2023-04-02T13:53:51.276Z,26.98
2023-04-02T13:56:25.661Z,22.50
2023-04-02T13:57:40.476Z,26.30
2023-04-02T13:58:55.947Z,24.88
2023-04-02T14:00:01.777Z,26.27
2023-04-02T14:01:18.413Z,22.02
2023-04-02T14:02:55.159Z,29.38
2023-04-02T14:06:54.611Z,25.92
2023-04-02T14:08:52.776Z,27.95
2023-04-02T14:11:24.948Z,26.35
2023-04-02T14:13:14.894Z,28.10
2023-04-02T14:16:26.508Z,27.98
2023-04-02T14:17:51.998Z,25.35
2023-04-02T14:19:13.936Z,28.52
2023-04-02T14:20:38.615Z,26.40
2023-04-02T14:22:08.902Z,24.10
2023-04-02T14:23:34.374Z,23.17
2023-04-02T14:25:19.623Z,28.13
2023-04-02T14:27:34.015Z,26.65
2023-04-02T14:28:59.900Z,25.23
2023-04-02T14:30:33.848Z,32.15
2023-04-02T14:32:02.618Z,29.48
2023-04-02T14:34:02.276Z,30.20
2023-04-02T14:35:24.488Z,31.73
2023-04-02T14:37:13.794Z,24.77
2023-04-02T14:38:55.908Z,26.88
2023-04-02T14:40:56.640Z,34.00
2023-04-02T14:42:41.946Z,33.75
2023-04-02T14:44:25.662Z,30.55
2023-04-02T14:46:05.773Z,27.05
2023-04-02T14:47:45.816Z,33.22
2023-04-02T14:49:42.574Z,30.63
2023-04-02T14:51:09.108Z,33.85
2023-04-02T14:52:33.737Z,28.98
2023-04-02T14:53:57.858Z,27.38
2023-04-02T14:55:29.651Z,23.98
2023-04-02T14:57:56.010Z,28.27
2023-04-02T14:59:40.910Z,24.40
2023-04-02T15:01:23.510Z,24.00
2023-04-02T15:02:51.601Z,29.88
2023-04-02T15:06:26.461Z,30.25
2023-04-02T15:09:45.955Z,25.17
2023-04-02T15:11:39.287Z,18.58
2023-04-02T15:12:55.733Z,22.20
2023-04-02T15:14:42.244Z,22.58
2023-04-02T15:15:58.742Z,22.73
2023-04-02T15:17:11.427Z,21.38
2023-04-02T15:19:36.850Z,24.13
2023-04-02T15:23:00.960Z,18.27
2023-04-02T15:24:24.280Z,17.98
2023-04-02T15:25:54.093Z,36.00
2023-04-02T15:27:42.008Z,21.73
2023-04-02T15:29:01.570Z,21.35
2023-04-02T15:31:57.585Z,23.20
2023-04-02T15:33:44.825Z,18.35
2023-04-02T15:35:45.403Z,18.40
2023-04-02T15:37:32.786Z,24.27
2023-04-02T15:38:50.067Z,47.47
2023-04-02T15:40:37.189Z,20.00
2023-04-02T15:44:16.229Z,20.55
2023-04-02T15:46:04.730Z,26.35
2023-04-02T15:48:15.442Z,21.52
2023-04-02T15:50:16.537Z,18.40
2023-04-02T15:51:59.165Z,23.75
2023-04-02T15:55:24.380Z,24.27
2023-04-02T15:57:04.383Z,17.67
2023-04-02T15:58:43.957Z,25.77
2023-04-02T16:00:29.652Z,19.45
2023-04-02T16:01:38.654Z,18.65
2023-04-02T16:03:03.000Z,23.00
2023-04-02T16:04:39.387Z,20.38
2023-04-02T16:06:04.999Z,19.25
2023-04-02T16:09:58.877Z,19.73
2023-04-02T16:11:15.596Z,22.35
2023-04-02T16:12:26.740Z,21.80
2023-04-02T16:17:39.827Z,19.95
2023-04-02T16:19:34.872Z,19.67
2023-04-02T16:21:17.289Z,23.60
2023-04-02T16:24:36.843Z,21.63
2023-04-02T16:26:33.414Z,17.60
2023-04-02T16:32:10.489Z,18.83
2023-04-02T16:34:13.732Z,19.00
2023-04-02T16:35:43.942Z,19.88
2023-04-02T16:37:12.193Z,17.42
2023-04-02T16:38:39.395Z,19.65
2023-04-02T16:40:13.051Z,20.58
2023-04-02T16:42:06.612Z,23.23
2023-04-02T16:45:57.449Z,21.48
2023-04-02T16:50:23.551Z,18.73
2023-04-02T16:52:19.114Z,19.38
2023-04-02T16:54:03.618Z,18.65
2023-04-02T16:55:24.104Z,21.52
2023-04-02T16:59:16.248Z,19.67
2023-04-02T17:01:02.101Z,17.02
2023-04-02T17:02:43.200Z,22.90
2023-04-02T17:04:09.612Z,19.17
2023-04-02T17:05:50.168Z,16.48
2023-04-02T17:07:07.944Z,18.15
2023-04-02T17:08:38.825Z,17.77
2023-04-02T17:09:54.048Z,15.55
2023-04-02T17:11:39.182Z,19.13
2023-04-02T17:13:07.321Z,20.52
2023-04-02T17:14:41.456Z,21.08
2023-04-02T17:15:56.886Z,17.92
2023-04-02T17:17:05.914Z,18.95
2023-04-02T17:18:20.512Z,17.67
2023-04-02T17:19:27.150Z,19.65
2023-04-02T17:20:34.851Z,26.13
2023-04-02T17:21:44.002Z,18.92
2023-04-02T17:22:52.939Z,18.67
2023-04-02T17:24:38.718Z,18.30
2023-04-02T17:25:54.657Z,16.83
2023-04-02T17:27:05.033Z,18.55
2023-04-02T17:28:21.690Z,17.58
2023-04-02T17:29:46.615Z,18.67
2023-04-02T17:30:55.436Z,17.75
2023-04-02T17:32:03.770Z,19.27
2023-04-02T17:33:18.296Z,18.65
2023-04-02T17:34:24.354Z,16.58
2023-04-02T17:35:36.206Z,20.00
2023-04-02T17:37:16.030Z,20.40
2023-04-02T17:38:32.252Z,16.67
2023-04-02T17:40:49.730Z,24.42
2023-04-02T17:42:20.971Z,18.33
2023-04-02T17:43:48.192Z,16.65
2023-04-02T17:44:56.382Z,17.83
2023-04-02T17:46:09.426Z,18.83
2023-04-02T17:49:29.306Z,24.98
2023-04-02T17:51:02.632Z,21.45
2023-04-02T17:52:37.624Z,18.48
2023-04-02T17:54:15.432Z,22.52
2023-04-02T17:55:49.542Z,19.92
2023-04-02T17:57:29.091Z,18.92
2023-04-02T17:59:13.711Z,20.02
2023-04-02T18:00:46.441Z,20.50
2023-04-02T18:02:10.626Z,20.63
2023-04-02T18:03:30.044Z,23.08
2023-04-02T18:04:45.027Z,21.88
2023-04-02T18:05:56.618Z,20.45
2023-04-02T18:07:36.166Z,24.50
2023-04-02T18:08:55.884Z,20.02
2023-04-02T18:10:17.364Z,36.35
2023-04-02T18:11:43.576Z,34.60
2023-04-02T18:13:13.192Z,34.05
2023-04-02T18:14:36.162Z,24.90
2023-04-02T18:15:38.094Z,23.42
2023-04-02T18:17:06.689Z,18.83
2023-04-02T18:18:49.910Z,23.45
2023-04-02T18:19:58.857Z,25.75
2023-04-02T18:23:04.899Z,19.40
2023-04-02T18:24:30.366Z,20.10
2023-04-02T18:25:57.864Z,19.73
2023-04-02T18:27:25.218Z,19.45
2023-04-02T18:28:43.517Z,19.17
2023-04-02T18:30:34.230Z,22.90
2023-04-02T18:31:58.243Z,20.90
2023-04-02T18:33:38.821Z,21.25
2023-04-02T18:35:32.604Z,27.10
2023-04-02T18:37:08.052Z,21.10
2023-04-02T18:38:27.493Z,21.08
2023-04-02T18:40:26.208Z,23.85
2023-04-02T18:41:43.530Z,21.83
2023-04-02T18:43:11.403Z,20.75
2023-04-02T18:46:06.637Z,22.27
2023-04-02T18:47:40.270Z,17.33
2023-04-02T18:49:03.812Z,18.67
2023-04-02T18:50:25.272Z,19.40
2023-04-02T18:51:38.503Z,21.05
2023-04-02T18:52:53.039Z,19.85
2023-04-02T18:54:08.751Z,17.60
2023-04-02T18:55:36.289Z,20.50
2023-04-02T18:56:41.647Z,18.80
2023-04-02T18:59:23.764Z,17.50
2023-04-02T19:00:40.940Z,25.73
2023-04-02T19:01:52.984Z,23.40
2023-04-02T19:03:29.443Z,22.65
2023-04-02T19:04:38.544Z,21.77
2023-04-02T19:05:56.839Z,19.27
2023-04-02T19:07:23.533Z,21.75
2023-04-02T19:08:33.513Z,18.08
2023-04-02T19:09:43.225Z,18.73
2023-04-02T19:10:52.518Z,19.67
2023-04-02T19:11:55.682Z,18.38
2023-04-02T19:13:01.478Z,24.25
2023-04-02T19:14:31.555Z,19.88
2023-04-02T19:15:57.285Z,24.58
2023-04-02T19:17:33.107Z,21.52
2023-04-02T19:19:13.595Z,22.55
2023-04-02T19:23:02.755Z,20.08
2023-04-02T19:24:42.301Z,22.92
2023-04-02T19:26:19.388Z,18.75
2023-04-02T19:27:56.478Z,20.88
2023-04-02T19:29:10.854Z,19.63
2023-04-02T19:30:38.793Z,19.80
2023-04-02T19:32:08.457Z,19.88
2023-04-02T19:33:38.432Z,20.70
2023-04-02T19:34:53.952Z,29.65
2023-04-02T19:36:21.670Z,20.38
2023-04-02T19:37:53.264Z,21.80
2023-04-02T19:39:03.228Z,20.60
2023-04-02T19:40:46.723Z,21.27
2023-04-02T19:42:07.727Z,18.50
2023-04-02T19:43:12.968Z,19.88
2023-04-02T19:44:17.203Z,20.73
2023-04-02T19:45:21.335Z,21.30
2023-04-02T19:46:26.710Z,22.08
2023-04-02T19:47:29.454Z,19.58
2023-04-02T19:48:47.596Z,19.70
2023-04-02T19:49:51.136Z,20.30
2023-04-02T19:50:55.222Z,15.32
2023-04-02T19:51:59.475Z,17.90
2023-04-02T19:53:09.523Z,21.75
2023-04-02T19:54:13.445Z,19.17
2023-04-02T19:55:18.060Z,20.63
2023-04-02T19:56:24.769Z,18.77
2023-04-02T19:57:30.923Z,23.73
2023-04-02T19:58:35.476Z,22.95
2023-04-02T19:59:45.619Z,19.88
2023-04-02T20:00:49.212Z,21.85
2023-04-02T20:01:56.520Z,19.02
2023-04-02T20:03:02.246Z,23.20
2023-04-02T20:04:09.458Z,19.23
2023-04-02T20:05:16.845Z,17.73
2023-04-02T20:06:21.852Z,19.17
2023-04-02T20:07:34.713Z,20.67
2023-04-02T20:08:39.071Z,20.38
2023-04-02T20:09:45.075Z,20.02
2023-04-02T20:10:50.559Z,27.63
2023-04-02T20:11:56.716Z,19.70
2023-04-02T20:13:01.730Z,19.20
2023-04-02T20:14:46.398Z,21.02
2023-04-02T20:16:06.455Z,27.02
2023-04-02T20:17:12.273Z,24.77
2023-04-02T20:18:22.037Z,21.35
2023-04-02T20:19:27.329Z,21.42
2023-04-02T20:21:00.833Z,21.85
2023-04-02T20:22:05.190Z,20.83
2023-04-02T20:23:47.905Z,25.63
2023-04-02T20:24:53.530Z,17.85
2023-04-02T20:26:25.256Z,26.27
2023-04-02T20:27:36.578Z,21.92
2023-04-02T20:28:48.610Z,23.10
2023-04-02T20:29:57.269Z,21.52
2023-04-02T20:31:12.646Z,21.98
2023-04-02T20:32:18.407Z,18.77
2023-04-02T20:33:25.235Z,18.50
2023-04-02T20:34:31.458Z,44.20
2023-04-02T20:35:40.516Z,21.95
2023-04-02T20:36:46.639Z,20.05
2023-04-02T20:37:49.038Z,23.35
2023-04-02T20:38:56.848Z,26.67
2023-04-02T20:40:07.594Z,19.50
2023-04-02T20:41:16.526Z,20.83
2023-04-02T20:42:22.659Z,24.48
2023-04-02T20:43:29.255Z,20.80
2023-04-02T20:44:35.691Z,22.15
2023-04-02T20:45:52.106Z,23.10
2023-04-02T20:47:04.739Z,21.42
2023-04-02T20:48:37.517Z,24.75
2023-04-02T20:49:53.184Z,21.05
2023-04-02T20:51:08.852Z,22.15
2023-04-02T20:52:16.567Z,25.60
2023-04-02T20:53:20.759Z,24.35
2023-04-02T20:54:27.404Z,25.33
2023-04-02T20:55:53.523Z,23.35
2023-04-02T20:57:01.168Z,23.55
2023-04-02T20:58:10.624Z,21.55
2023-04-02T20:59:17.519Z,24.95
2023-04-02T21:00:31.264Z,21.15
2023-04-02T21:01:39.302Z,19.38
2023-04-02T21:02:44.451Z,27.80
2023-04-02T21:03:55.949Z,42.13
2023-04-02T21:05:06.827Z,23.35
2023-04-02T21:06:43.784Z,22.70
2023-04-02T21:07:53.880Z,20.67
2023-04-02T21:09:07.755Z,21.63
2023-04-02T21:10:13.549Z,23.58
2023-04-02T21:11:22.721Z,25.00
2023-04-02T21:12:40.834Z,21.85
2023-04-02T21:13:57.698Z,27.02
2023-04-02T21:15:14.369Z,24.88
2023-04-02T21:16:38.650Z,23.27
2023-04-02T21:17:51.728Z,21.35
2023-04-02T21:18:56.148Z,23.60
2023-04-02T21:20:05.474Z,22.55
2023-04-02T21:22:17.308Z,20.60
2023-04-02T21:23:22.252Z,25.25
2023-04-02T21:24:34.142Z,23.60
2023-04-02T21:26:06.579Z,19.23
2023-04-02T21:27:14.538Z,20.67
2023-04-02T21:28:21.848Z,21.10
2023-04-02T21:29:28.226Z,21.38
2023-04-02T21:30:41.699Z,23.42
2023-04-02T21:31:50.914Z,23.52
2023-04-02T21:33:00.106Z,27.63
2023-04-02T21:34:05.507Z,21.00
2023-04-02T21:35:10.444Z,18.58
2023-04-02T21:36:31.077Z,20.83
2023-04-02T21:37:37.100Z,25.38
2023-04-02T21:38:52.630Z,22.02
2023-04-02T21:39:59.934Z,28.48
2023-04-02T21:41:21.792Z,19.50
2023-04-02T21:42:30.304Z,27.40
2023-04-02T21:43:45.346Z,18.97
2023-04-02T21:44:57.894Z,21.17
2023-04-02T21:46:09.813Z,21.55
2023-04-02T21:47:15.914Z,24.67
2023-04-02T21:48:25.971Z,20.35
2023-04-02T21:49:30.882Z,19.17
2023-04-02T21:50:38.540Z,20.75
2023-04-02T21:51:46.315Z,19.88
2023-04-02T21:52:55.904Z,26.60
2023-04-02T21:54:01.027Z,23.38
2023-04-02T21:55:06.917Z,27.20
2023-04-02T21:56:22.215Z,21.92
2023-04-02T21:57:31.526Z,21.98
2023-04-02T21:58:39.444Z,25.77
2023-04-02T21:59:43.334Z,20.98
2023-04-02T22:00:49.083Z,18.27
2023-04-02T22:01:56.916Z,24.63
2023-04-02T22:03:08.833Z,27.38
2023-04-02T22:04:26.502Z,24.38
2023-04-02T22:05:32.553Z,24.60
2023-04-02T22:06:44.559Z,27.08
2023-04-02T22:07:50.959Z,22.52
2023-04-02T22:08:59.199Z,27.65
2023-04-02T22:10:03.617Z,21.77
2023-04-02T22:11:12.489Z,24.38
2023-04-02T22:12:18.773Z,24.35
2023-04-02T22:13:22.237Z,23.40
2023-04-02T22:14:39.378Z,19.02
2023-04-02T22:15:45.711Z,19.83
2023-04-02T22:16:51.447Z,20.27
2023-04-02T22:17:56.654Z,19.15
2023-04-02T22:19:02.602Z,20.38
2023-04-02T22:20:09.676Z,21.15
2023-04-02T22:21:15.531Z,23.42
2023-04-02T22:22:35.149Z,22.20
2023-04-02T22:23:41.217Z,24.30
2023-04-02T22:24:48.044Z,23.20
2023-04-02T22:25:56.651Z,24.15
2023-04-02T22:27:03.799Z,24.23
2023-04-02T22:28:10.706Z,18.45
2023-04-02T22:29:16.998Z,23.90
2023-04-02T22:30:26.823Z,21.55
2023-04-02T22:32:57.404Z,22.38
2023-04-02T22:34:01.281Z,21.88
2023-04-02T22:35:07.517Z,25.23
2023-04-02T22:36:18.438Z,22.80
2023-04-02T22:37:24.643Z,23.38
2023-04-02T22:38:30.025Z,25.88
2023-04-02T22:39:33.617Z,22.98
2023-04-02T22:40:51.255Z,24.98
2023-04-02T22:41:58.213Z,24.10
2023-04-02T22:43:03.212Z,25.15
2023-04-02T22:44:08.641Z,22.55
2023-04-02T22:45:43.383Z,23.35
2023-04-02T22:46:53.040Z,29.20
2023-04-02T22:48:00.572Z,25.15
2023-04-02T22:49:11.344Z,27.73
2023-04-02T22:50:27.483Z,20.45
2023-04-02T22:51:34.889Z,21.20
2023-04-02T22:52:46.449Z,22.25
2023-04-02T22:53:57.049Z,21.00
2023-04-02T22:55:02.341Z,23.50
2023-04-02T22:56:13.525Z,25.33
2023-04-02T22:57:28.254Z,24.90
2023-04-02T22:58:37.064Z,23.00
2023-04-02T22:59:44.460Z,25.95
2023-04-02T23:00:49.918Z,24.50
2023-04-02T23:02:00.559Z,24.42
2023-04-02T23:03:05.676Z,27.27
2023-04-02T23:04:15.734Z,23.40
2023-04-02T23:05:20.159Z,21.95
2023-04-02T23:06:25.949Z,21.40
2023-04-02T23:07:30.293Z,20.27
2023-04-02T23:08:36.530Z,23.90
2023-04-02T23:09:43.429Z,26.85
2023-04-02T23:10:53.943Z,18.77
2023-04-02T23:12:02.862Z,23.17
2023-04-02T23:13:09.591Z,22.25
2023-04-02T23:14:16.828Z,25.55
2023-04-02T23:15:28.970Z,25.67
2023-04-02T23:16:40.234Z,26.40
2023-04-02T23:17:48.367Z,28.80
2023-04-02T23:18:56.032Z,20.63
2023-04-02T23:20:24.484Z,24.25
2023-04-02T23:21:30.679Z,25.92
2023-04-02T23:22:35.538Z,22.55
2023-04-02T23:23:43.294Z,25.73
2023-04-02T23:24:49.852Z,24.98
2023-04-02T23:26:15.492Z,22.05
2023-04-02T23:27:19.412Z,24.08
2023-04-02T23:28:23.863Z,26.23
2023-04-02T23:29:27.258Z,19.63
2023-04-02T23:30:36.963Z,21.00
2023-04-02T23:31:50.530Z,19.17
2023-04-02T23:32:55.803Z,23.23
2023-04-02T23:34:03.277Z,20.77
2023-04-02T23:35:08.757Z,23.25
2023-04-02T23:36:19.995Z,23.75
2023-04-02T23:37:26.310Z,22.10
2023-04-02T23:38:31.646Z,20.40
2023-04-02T23:39:37.797Z,25.75
2023-04-02T23:41:51.847Z,21.00
2023-04-02T23:42:59.400Z,20.50
2023-04-02T23:44:04.949Z,25.48
2023-04-02T23:45:18.347Z,25.02
2023-04-02T23:46:25.978Z,22.92
2023-04-02T23:47:36.102Z,23.95
2023-04-02T23:48:42.495Z,19.52
2023-04-02T23:49:58.562Z,22.08
2023-04-02T23:51:05.831Z,20.73
2023-04-02T23:52:14.359Z,25.70
2023-04-02T23:53:23.542Z,22.63
2023-04-02T23:54:36.784Z,25.38
2023-04-02T23:55:42.109Z,21.30
2023-04-02T23:56:48.049Z,21.05
2023-04-02T23:57:55.410Z,19.17
2023-04-02T23:59:02.156Z,18.90
